Terminal Aerodrome Forecast
Issued by NWS Albany, NY

Home | Current Version | Previous Version | Text Only | Print | Product List | Glossary On
Versions: 1 2 3 4 5 6 7 8 9 10 11 12 13 14 15 16 17 18 19 20 21
812
FTUS41 KALY 281142
TAFGFL
TAF
KGFL 281142Z 2812/2912 00000KT 6SM BR SCT250
     FM281300 VRB03KT P6SM FEW035 BKN200
     FM281700 16006KT P6SM FEW060 SCT250
     FM282300 VRB03KT P6SM BKN250
     FM290700 00000KT 3SM BR SCT003=

USA.gov is the U.S. government's official web portal to all federal, state and local government web resources and services.